Time,TemperatureF,DewpointF,PressureIn,WindDirection,WindDirectionDegrees,WindSpeedMPH,WindSpeedGustMPH,Humidity,HourlyPrecipIn,Conditions,Clouds,dailyrainin,SoftwareType,DateUTC
2013-06-03 00:02:00,33.0,32.0,30.01,SE,125,0.0,0.0,96,0.00,,,0.02,,2013-06-03 05:02:00,
2013-06-03 00:12:00,33.0,32.0,30.01,SE,125,0.0,0.0,96,0.00,,,0.02,,2013-06-03 05:12:00,
2013-06-03 00:22:00,33.0,32.0,30.01,SE,125,0.0,0.0,96,0.00,,,0.02,,2013-06-03 05:22:00,
2013-06-03 00:32:00,32.0,31.0,30.01,SE,126,0.0,0.0,96,0.00,,,0.02,,2013-06-03 05:32:00,
2013-06-03 00:42:00,32.0,31.0,30.01,SE,126,0.0,0.0,96,0.00,,,0.02,,2013-06-03 05:42:00,
2013-06-03 00:52:00,32.0,31.0,30.01,SE,125,0.0,0.0,96,0.00,,,0.01,,2013-06-03 05:52:00,
2013-06-03 01:02:00,31.0,30.0,30.01,SE,125,0.0,0.0,96,0.00,,,0.01,,2013-06-03 06:02:00,
2013-06-03 01:12:00,31.0,30.0,30.01,SE,125,0.0,0.0,96,0.00,,,0.01,,2013-06-03 06:12:00,
2013-06-03 01:22:00,31.0,30.0,30.01,SE,126,0.0,0.0,96,0.00,,,0.01,,2013-06-03 06:22:00,
2013-06-03 01:32:00,31.0,30.0,30.02,SE,125,0.0,0.0,96,0.00,,,0.01,,2013-06-03 06:32:00,
2013-06-03 01:42:00,31.0,30.0,30.02,SE,125,0.0,0.0,96,0.00,,,0.01,,2013-06-03 06:42:00,
2013-06-03 01:52:00,30.0,29.0,30.02,SE,125,0.0,0.0,97,0.00,,,0.00,,2013-06-03 06:52:00,
2013-06-03 02:02:00,30.0,29.0,30.02,SE,126,0.0,0.0,97,0.00,,,0.00,,2013-06-03 07:02:00,
2013-06-03 02:12:00,30.0,29.0,30.02,SE,126,0.0,0.0,97,0.00,,,0.00,,2013-06-03 07:12:00,
2013-06-03 02:22:00,30.0,29.0,30.01,SE,126,0.0,0.0,97,0.00,,,0.00,,2013-06-03 07:22:00,
2013-06-03 02:32:00,29.0,28.0,30.01,SE,125,0.0,0.0,97,0.00,,,0.00,,2013-06-03 07:32:00,
2013-06-03 02:42:00,29.0,28.0,30.01,SE,125,0.0,0.0,97,0.00,,,0.00,,2013-06-03 07:42:00,
2013-06-03 02:52:00,29.0,28.0,30.01,SE,125,0.0,0.0,97,0.00,,,0.00,,2013-06-03 07:52:00,
2013-06-03 03:02:00,29.0,28.0,30.02,SE,126,0.0,0.0,97,0.00,,,0.00,,2013-06-03 08:02:00,
2013-06-03 03:12:00,29.0,28.0,30.02,SE,126,0.0,0.0,97,0.00,,,0.00,,2013-06-03 08:12:00,
2013-06-03 03:22:00,29.0,28.0,30.02,SE,125,0.0,0.0,97,0.00,,,0.00,,2013-06-03 08:22:00,
2013-06-03 03:32:00,29.0,28.0,30.02,SE,126,0.0,0.0,97,0.00,,,0.00,,2013-06-03 08:32:00,
2013-06-03 03:42:00,29.0,28.0,30.02,SE,126,0.0,0.0,97,0.00,,,0.00,,2013-06-03 08:42:00,
2013-06-03 03:52:00,30.0,29.0,30.02,SE,126,0.0,0.0,97,0.00,,,0.00,,2013-06-03 08:52:00,
2013-06-03 04:02:00,30.0,29.0,30.02,SE,126,0.0,0.0,97,0.00,,,0.00,,2013-06-03 09:02:00,
2013-06-03 04:12:00,30.0,29.0,30.02,SE,126,0.0,0.0,97,0.00,,,0.00,,2013-06-03 09:12:00,
2013-06-03 04:22:00,30.0,29.0,30.02,SE,126,0.0,0.0,98,0.00,,,0.00,,2013-06-03 09:22:00,
2013-06-03 04:33:00,29.0,28.0,30.03,SE,125,0.0,0.0,97,0.00,,,0.00,,2013-06-03 09:33:00,
2013-06-03 04:42:00,29.0,28.0,30.03,SE,125,0.0,0.0,97,0.00,,,0.00,,2013-06-03 09:42:00,
2013-06-03 04:52:00,29.0,28.0,30.03,SE,126,0.0,0.0,97,0.00,,,0.00,,2013-06-03 09:52:00,
2013-06-03 05:03:00,29.0,29.0,30.03,SE,125,0.0,0.0,98,0.00,,,0.00,,2013-06-03 10:03:00,
2013-06-03 05:12:00,29.0,29.0,30.03,SE,125,0.0,0.0,98,0.00,,,0.00,,2013-06-03 10:12:00,
2013-06-03 05:22:00,29.0,29.0,30.03,SE,125,0.0,0.0,98,0.00,,,0.00,,2013-06-03 10:22:00,
2013-06-03 05:33:00,30.0,29.0,30.03,SE,128,0.0,0.0,98,0.00,,,0.00,,2013-06-03 10:33:00,
2013-06-03 05:42:00,30.0,29.0,30.03,SE,128,0.0,0.0,98,0.00,,,0.00,,2013-06-03 10:42:00,
2013-06-03 05:52:00,30.0,29.0,30.04,SE,128,0.0,0.0,98,0.00,,,0.00,,2013-06-03 10:52:00,
2013-06-03 06:02:00,30.0,29.0,30.04,SE,128,0.0,0.0,98,0.00,,,0.00,,2013-06-03 11:02:00,
2013-06-03 06:12:00,30.0,29.0,30.04,SE,128,0.0,0.0,98,0.00,,,0.00,,2013-06-03 11:12:00,
2013-06-03 06:22:00,30.0,29.0,30.04,SE,129,0.0,0.0,98,0.00,,,0.00,,2013-06-03 11:22:00,
2013-06-03 06:32:00,30.0,29.0,30.05,SE,128,0.0,0.0,98,0.00,,,0.00,,2013-06-03 11:32:00,
2013-06-03 06:42:00,30.0,29.0,30.05,SE,128,0.0,0.0,98,0.00,,,0.00,,2013-06-03 11:42:00,
2013-06-03 06:52:00,31.0,31.0,30.05,SE,129,0.0,0.0,98,0.00,,,0.00,,2013-06-03 11:52:00,
2013-06-03 07:02:00,32.0,32.0,30.05,SE,128,0.0,0.0,98,0.00,,,0.00,,2013-06-03 12:02:00,
2013-06-03 07:12:00,32.0,32.0,30.05,SE,128,0.0,0.0,98,0.00,,,0.00,,2013-06-03 12:12:00,
2013-06-03 07:22:00,33.0,32.0,30.05,SE,128,0.0,0.0,98,0.00,,,0.00,,2013-06-03 12:22:00,
2013-06-03 07:32:00,36.0,36.0,30.05,SE,125,0.0,0.0,99,0.00,,,0.00,,2013-06-03 12:32:00,
2013-06-03 07:42:00,36.0,36.0,30.05,SE,125,0.0,0.0,99,0.00,,,0.00,,2013-06-03 12:42:00,
2013-06-03 07:52:00,38.0,38.0,30.05,NNW,327,0.0,1.0,99,0.00,,,0.00,,2013-06-03 12:52:00,
2013-06-03 08:02:00,40.0,40.0,30.05,NNW,332,0.0,1.0,99,0.00,,,0.00,,2013-06-03 13:02:00,
2013-06-03 08:12:00,40.0,40.0,30.05,NNW,332,0.0,1.0,99,0.00,,,0.00,,2013-06-03 13:12:00,
2013-06-03 08:22:00,41.0,41.0,30.06,NNW,333,0.0,1.0,99,0.00,,,0.00,,2013-06-03 13:22:00,
2013-06-03 08:32:00,44.0,41.0,30.05,WSW,253,0.0,1.0,88,0.00,,,0.00,,2013-06-03 13:32:00,
2013-06-03 08:42:00,44.0,41.0,30.05,WSW,253,0.0,1.0,88,0.00,,,0.00,,2013-06-03 13:42:00,
2013-06-03 08:52:00,47.0,41.0,30.06,WNW,290,0.0,2.0,81,0.00,,,0.00,,2013-06-03 13:52:00,
2013-06-03 09:02:00,51.0,42.0,30.05,North,350,0.0,1.0,71,0.00,,,0.00,,2013-06-03 14:02:00,
2013-06-03 09:12:00,51.0,42.0,30.05,North,350,0.0,1.0,71,0.00,,,0.00,,2013-06-03 14:12:00,
2013-06-03 09:22:00,53.0,42.0,30.06,WSW,256,0.0,2.0,65,0.00,,,0.00,,2013-06-03 14:22:00,
2013-06-03 09:32:00,55.0,42.0,30.05,SSW,195,0.0,3.0,61,0.00,,,0.00,,2013-06-03 14:32:00,
2013-06-03 09:42:00,55.0,42.0,30.05,SSW,195,0.0,3.0,61,0.00,,,0.00,,2013-06-03 14:42:00,
2013-06-03 09:52:00,55.0,39.0,30.05,NNW,330,2.0,6.0,54,0.00,,,0.00,,2013-06-03 14:52:00,
2013-06-03 10:02:00,56.0,39.0,30.05,ESE,121,0.0,6.0,52,0.00,,,0.00,,2013-06-03 15:02:00,
2013-06-03 10:12:00,56.0,39.0,30.05,ESE,121,0.0,6.0,52,0.00,,,0.00,,2013-06-03 15:12:00,
2013-06-03 10:22:00,57.0,37.0,30.05,ESE,118,2.0,9.0,47,0.00,,,0.00,,2013-06-03 15:22:00,
2013-06-03 10:33:00,58.0,40.0,30.05,WNW,302,1.0,4.0,51,0.00,,,0.00,,2013-06-03 15:33:00,
2013-06-03 10:43:00,58.0,40.0,30.05,WNW,302,1.0,4.0,51,0.00,,,0.00,,2013-06-03 15:43:00,
2013-06-03 10:53:00,59.0,40.0,30.04,West,269,1.0,6.0,50,0.00,,,0.00,,2013-06-03 15:53:00,
2013-06-03 11:03:00,59.0,40.0,30.05,West,260,1.0,4.0,50,0.00,,,0.00,,2013-06-03 16:03:00,
2013-06-03 11:13:00,59.0,40.0,30.05,West,260,1.0,4.0,50,0.00,,,0.00,,2013-06-03 16:13:00,
2013-06-03 11:23:00,60.0,39.0,30.05,WSW,248,2.0,6.0,45,0.00,,,0.00,,2013-06-03 16:23:00,
2013-06-03 11:33:00,60.0,39.0,30.04,SW,233,1.0,8.0,46,0.00,,,0.00,,2013-06-03 16:33:00,
2013-06-03 11:42:00,61.0,40.0,30.04,NNW,333,2.0,9.0,45,0.00,,,0.00,,2013-06-03 16:42:00,
2013-06-03 11:53:00,61.0,40.0,30.04,NNW,333,2.0,9.0,45,0.00,,,0.00,,2013-06-03 16:53:00,
2013-06-03 12:02:00,62.0,39.0,30.05,SSE,158,2.0,10.0,43,0.00,,,0.00,,2013-06-03 17:02:00,
2013-06-03 12:12:00,62.0,39.0,30.05,SSE,158,2.0,10.0,43,0.00,,,0.00,,2013-06-03 17:12:00,
2013-06-03 12:22:00,62.0,41.0,30.05,NNW,330,2.0,6.0,46,0.00,,,0.00,,2013-06-03 17:22:00,
2013-06-03 12:33:00,62.0,41.0,30.05,North,1,1.0,8.0,46,0.00,,,0.00,,2013-06-03 17:33:00,
2013-06-03 12:42:00,62.0,41.0,30.05,North,1,1.0,8.0,46,0.00,,,0.00,,2013-06-03 17:42:00,
2013-06-03 12:52:00,64.0,41.0,30.04,NE,46,1.0,5.0,43,0.00,,,0.00,,2013-06-03 17:52:00,
2013-06-03 13:02:00,63.0,41.0,30.04,NNW,333,3.0,5.0,44,0.00,,,0.00,,2013-06-03 18:02:00,
2013-06-03 13:12:00,63.0,41.0,30.04,NNW,333,3.0,5.0,44,0.00,,,0.00,,2013-06-03 18:12:00,
2013-06-03 13:22:00,63.0,38.0,30.03,WSW,243,2.0,8.0,40,0.00,,,0.00,,2013-06-03 18:22:00,
2013-06-03 13:32:00,63.0,41.0,30.03,WSW,239,1.0,10.0,44,0.00,,,0.00,,2013-06-03 18:32:00,
2013-06-03 13:42:00,63.0,41.0,30.03,WSW,239,1.0,10.0,44,0.00,,,0.00,,2013-06-03 18:42:00,
2013-06-03 13:52:00,65.0,42.0,30.03,ENE,78,1.0,5.0,43,0.00,,,0.00,,2013-06-03 18:52:00,
2013-06-03 14:03:00,65.0,38.0,30.03,West,261,1.0,7.0,37,0.00,,,0.00,,2013-06-03 19:03:00,
2013-06-03 14:12:00,65.0,38.0,30.03,West,261,1.0,7.0,37,0.00,,,0.00,,2013-06-03 19:12:00,
2013-06-03 14:22:00,64.0,38.0,30.03,West,259,2.0,9.0,38,0.00,,,0.00,,2013-06-03 19:22:00,
2013-06-03 14:32:00,65.0,39.0,30.02,West,269,0.0,5.0,38,0.00,,,0.00,,2013-06-03 19:32:00,
2013-06-03 14:42:00,65.0,39.0,30.02,West,269,0.0,5.0,38,0.00,,,0.00,,2013-06-03 19:42:00,
2013-06-03 14:52:00,66.0,38.0,30.02,South,172,0.0,5.0,36,0.00,,,0.00,,2013-06-03 19:52:00,
2013-06-03 15:02:00,65.0,37.0,30.03,SW,229,1.0,4.0,35,0.00,,,0.00,,2013-06-03 20:02:00,
2013-06-03 15:12:00,65.0,37.0,30.03,SW,229,1.0,4.0,35,0.00,,,0.00,,2013-06-03 20:12:00,
2013-06-03 15:22:00,65.0,37.0,30.03,West,259,0.0,8.0,36,0.00,,,0.00,,2013-06-03 20:22:00,
2013-06-03 15:32:00,66.0,39.0,30.03,NW,311,0.0,5.0,37,0.00,,,0.00,,2013-06-03 20:32:00,
2013-06-03 15:42:00,66.0,39.0,30.03,NW,311,0.0,5.0,37,0.00,,,0.00,,2013-06-03 20:42:00,
2013-06-03 15:52:00,65.0,36.0,30.03,NNE,20,1.0,4.0,34,0.00,,,0.00,,2013-06-03 20:52:00,
2013-06-03 16:02:00,65.0,34.0,30.02,West,274,0.0,6.0,32,0.00,,,0.00,,2013-06-03 21:02:00,
2013-06-03 16:12:00,65.0,34.0,30.02,West,274,0.0,6.0,32,0.00,,,0.00,,2013-06-03 21:12:00,
2013-06-03 16:22:00,64.0,37.0,30.02,SSE,158,0.0,7.0,36,0.00,,,0.00,,2013-06-03 21:22:00,
2013-06-03 16:33:00,64.0,37.0,30.03,West,259,0.0,5.0,36,0.00,,,0.00,,2013-06-03 21:33:00,
2013-06-03 16:43:00,64.0,37.0,30.03,West,259,0.0,5.0,36,0.00,,,0.00,,2013-06-03 21:43:00,
2013-06-03 16:53:00,63.0,33.0,30.03,NNW,338,1.0,5.0,33,0.00,,,0.00,,2013-06-03 21:53:00,
2013-06-03 17:03:00,63.0,33.0,30.03,WNW,290,2.0,6.0,33,0.00,,,0.00,,2013-06-03 22:03:00,
2013-06-03 17:12:00,63.0,33.0,30.03,WNW,290,2.0,6.0,33,0.00,,,0.00,,2013-06-03 22:12:00,
2013-06-03 17:22:00,62.0,34.0,30.03,ENE,78,1.0,3.0,35,0.00,,,0.00,,2013-06-03 22:22:00,
2013-06-03 17:32:00,63.0,35.0,30.03,SW,217,1.0,4.0,35,0.00,,,0.00,,2013-06-03 22:32:00,
2013-06-03 17:42:00,63.0,35.0,30.03,SW,217,1.0,4.0,35,0.00,,,0.00,,2013-06-03 22:42:00,
2013-06-03 17:52:00,62.0,34.0,30.03,WSW,248,0.0,3.0,35,0.00,,,0.00,,2013-06-03 22:52:00,
2013-06-03 18:02:00,61.0,34.0,30.03,ESE,104,0.0,4.0,36,0.00,,,0.00,,2013-06-03 23:02:00,
2013-06-03 18:12:00,61.0,34.0,30.03,ESE,104,0.0,4.0,36,0.00,,,0.00,,2013-06-03 23:12:00,
2013-06-03 18:22:00,61.0,36.0,30.03,NW,321,0.0,3.0,39,0.00,,,0.00,,2013-06-03 23:22:00,
2013-06-03 18:32:00,59.0,33.0,30.03,West,266,0.0,3.0,38,0.00,,,0.00,,2013-06-03 23:32:00,
2013-06-03 18:42:00,59.0,33.0,30.03,West,266,0.0,3.0,38,0.00,,,0.00,,2013-06-03 23:42:00,
2013-06-03 18:52:00,59.0,34.0,30.03,NW,311,0.0,2.0,39,0.00,,,0.00,,2013-06-03 23:52:00,
2013-06-03 19:02:00,58.0,35.0,30.04,WSW,242,0.0,3.0,42,0.00,,,0.00,,2013-06-04 00:02:00,
2013-06-03 19:12:00,58.0,35.0,30.04,WSW,242,0.0,3.0,42,0.00,,,0.00,,2013-06-04 00:12:00,
2013-06-03 19:22:00,58.0,36.0,30.04,WSW,245,0.0,1.0,43,0.00,,,0.00,,2013-06-04 00:22:00,
2013-06-03 19:32:00,57.0,36.0,30.04,WSW,248,0.0,2.0,46,0.00,,,0.00,,2013-06-04 00:32:00,
2013-06-03 19:42:00,57.0,36.0,30.04,WSW,248,0.0,2.0,46,0.00,,,0.00,,2013-06-04 00:42:00,
2013-06-03 19:52:00,56.0,36.0,30.05,ESE,108,0.0,1.0,46,0.00,,,0.00,,2013-06-04 00:52:00,
2013-06-03 20:02:00,55.0,33.0,30.04,ESE,109,0.0,0.0,43,0.00,,,0.00,,2013-06-04 01:02:00,
2013-06-03 20:12:00,55.0,33.0,30.04,ESE,109,0.0,0.0,43,0.00,,,0.00,,2013-06-04 01:12:00,
2013-06-03 20:22:00,54.0,36.0,30.05,ESE,108,0.0,0.0,51,0.00,,,0.00,,2013-06-04 01:22:00,
2013-06-03 20:32:00,52.0,37.0,30.05,ESE,108,0.0,0.0,57,0.00,,,0.00,,2013-06-04 01:32:00,
2013-06-03 20:42:00,52.0,37.0,30.05,ESE,108,0.0,0.0,57,0.00,,,0.00,,2013-06-04 01:42:00,
2013-06-03 20:52:00,50.0,39.0,30.06,ESE,108,0.0,0.0,65,0.00,,,0.00,,2013-06-04 01:52:00,
2013-06-03 21:02:00,47.0,38.0,30.07,ESE,108,0.0,0.0,70,0.00,,,0.00,,2013-06-04 02:02:00,
2013-06-03 21:12:00,47.0,38.0,30.07,ESE,108,0.0,0.0,70,0.00,,,0.00,,2013-06-04 02:12:00,
2013-06-03 21:22:00,45.0,37.0,30.07,ESE,109,0.0,0.0,73,0.00,,,0.00,,2013-06-04 02:22:00,
2013-06-03 21:32:00,44.0,38.0,30.08,ESE,110,0.0,0.0,78,0.00,,,0.00,,2013-06-04 02:32:00,
2013-06-03 21:42:00,44.0,38.0,30.08,ESE,110,0.0,0.0,78,0.00,,,0.00,,2013-06-04 02:42:00,
2013-06-03 21:52:00,42.0,37.0,30.09,ESE,108,0.0,0.0,81,0.00,,,0.00,,2013-06-04 02:52:00,
2013-06-03 22:02:00,41.0,37.0,30.10,ESE,110,0.0,0.0,84,0.00,,,0.00,,2013-06-04 03:02:00,
2013-06-03 22:12:00,41.0,37.0,30.10,ESE,110,0.0,0.0,84,0.00,,,0.00,,2013-06-04 03:12:00,
2013-06-03 22:22:00,40.0,36.0,30.11,ESE,110,0.0,0.0,87,0.00,,,0.00,,2013-06-04 03:22:00,
2013-06-03 22:32:00,40.0,36.0,30.12,ENE,67,0.0,0.0,87,0.00,,,0.00,,2013-06-04 03:32:00,
2013-06-03 22:43:00,40.0,36.0,30.12,ENE,67,0.0,0.0,87,0.00,,,0.00,,2013-06-04 03:43:00,
2013-06-03 22:53:00,39.0,36.0,30.12,ENE,67,0.0,0.0,88,0.00,,,0.00,,2013-06-04 03:53:00,
2013-06-03 23:03:00,39.0,36.0,30.13,ENE,67,0.0,0.0,89,0.00,,,0.00,,2013-06-04 04:03:00,
2013-06-03 23:13:00,39.0,36.0,30.13,ENE,67,0.0,0.0,89,0.00,,,0.00,,2013-06-04 04:13:00,
2013-06-03 23:23:00,39.0,36.0,30.13,ENE,67,0.0,0.0,90,0.00,,,0.00,,2013-06-04 04:23:00,
2013-06-03 23:33:00,39.0,37.0,30.14,ENE,67,0.0,0.0,91,0.00,,,0.00,,2013-06-04 04:33:00,
2013-06-03 23:42:00,39.0,37.0,30.14,ENE,67,0.0,0.0,91,0.00,,,0.00,,2013-06-04 04:42:00,
2013-06-03 23:53:00,38.0,36.0,30.14,ENE,66,0.0,0.0,92,0.00,,,0.00,,2013-06-04 04:53:00,